Time;durP1;ratioP1;P1;durP2;ratioP2;P2;SDS_P1;SDS_P2;PMS_P1;PMS_P2;Temp;Humidity;BMP_temperature;BMP_pressure;BME280_temperature;BME280_humidity;BME280_pressure;Samples;Min_cycle;Max_cycle;Signal;HPM_P1;HPM_P2
2022/01/15 00:00:37;;;;;;;;;;;7.90;93.50;;;;;;4995059;28;20224;-85
2022/01/15 00:03:05;;;;;;;;;;;7.90;93.40;;;;;;4978780;28;20325;-84
2022/01/15 00:05:33;;;;;;;;;;;7.90;93.40;;;;;;4992978;28;19920;-85
2022/01/15 00:08:00;;;;;;;;;;;7.90;93.40;;;;;;4987373;28;19920;-85
2022/01/15 00:10:28;;;;;;;;;;;7.90;93.40;;;;;;4989305;28;19920;-85
2022/01/15 00:12:59;;;;;;;;;;;7.90;93.40;;;;;;4978904;28;19918;-85
2022/01/15 00:15:35;;;;;;;;;;;7.90;93.50;;;;;;4997041;28;19921;-86
2022/01/15 00:18:11;;;;;;;;;;;7.90;93.40;;;;;;4970884;28;19924;-85
2022/01/15 00:20:38;;;;;;;;;;;7.90;93.40;;;;;;4994320;28;19921;-86
2022/01/15 00:23:05;;;;;;;;;;;7.90;93.30;;;;;;4987188;28;20462;-85
2022/01/15 00:25:32;;;;;;;;;;;7.90;93.40;;;;;;4986556;28;20379;-85
2022/01/15 00:28:00;;;;;;;;;;;7.80;93.40;;;;;;4985769;28;19914;-85
2022/01/15 00:30:27;;;;;;;;;;;7.80;93.30;;;;;;4993418;28;19920;-85
2022/01/15 00:32:54;;;;;;;;;;;7.80;93.40;;;;;;4986483;28;19917;-85
2022/01/15 00:35:21;;;;;;;;;;;7.80;93.30;;;;;;4988334;28;20282;-85
2022/01/15 00:37:48;;;;;;;;;;;7.80;93.30;;;;;;4978008;28;19922;-86
2022/01/15 00:40:16;;;;;;;;;;;7.80;93.30;;;;;;4971598;28;20019;-86
2022/01/15 00:42:44;;;;;;;;;;;7.80;93.40;;;;;;4987221;28;22891;-86
2022/01/15 00:45:16;;;;;;;;;;;7.80;93.40;;;;;;4952799;28;20122;-85
2022/01/15 00:47:44;;;;;;;;;;;7.80;93.50;;;;;;4976118;28;19920;-85
2022/01/15 00:50:11;;;;;;;;;;;7.80;93.50;;;;;;4962031;28;19922;-86
2022/01/15 00:52:37;;;;;;;;;;;7.80;93.50;;;;;;4978331;28;19914;-85
2022/01/15 00:55:05;;;;;;;;;;;7.80;93.50;;;;;;4964707;28;19918;-86
2022/01/15 00:57:32;;;;;;;;;;;7.70;93.50;;;;;;4972496;28;19924;-86
2022/01/15 00:59:59;;;;;;;;;;;7.70;93.50;;;;;;4955794;28;19932;-85
2022/01/15 01:02:26;;;;;;;;;;;7.70;93.50;;;;;;4969024;28;19917;-85
2022/01/15 01:04:53;;;;;;;;;;;7.60;93.50;;;;;;4980202;28;20534;-86
2022/01/15 01:07:19;;;;;;;;;;;7.60;93.60;;;;;;4978079;28;19910;-85
2022/01/15 01:12:35;;;;;;;;;;;7.60;93.60;;;;;;4998941;28;20381;-86
2022/01/15 01:23:09;;;;;;;;;;;7.50;93.80;;;;;;4990939;28;19917;-86
2022/01/15 01:26:00;;;;;;;;;;;7.50;93.90;;;;;;4974496;28;19936;-86
2022/01/15 01:28:33;;;;;;;;;;;7.50;93.90;;;;;;4984489;28;19913;-85
2022/01/15 01:31:18;;;;;;;;;;;7.40;93.90;;;;;;4980618;28;20046;-85
2022/01/15 01:33:47;;;;;;;;;;;7.40;93.90;;;;;;4982855;28;20307;-86
2022/01/15 01:36:35;;;;;;;;;;;7.40;93.90;;;;;;4965594;28;19929;-86
2022/01/15 01:39:07;;;;;;;;;;;7.40;93.90;;;;;;4995212;28;19955;-86
2022/01/15 01:41:37;;;;;;;;;;;7.40;94.00;;;;;;4989317;28;19914;-86
2022/01/15 01:44:04;;;;;;;;;;;7.30;94.00;;;;;;5008666;28;19921;-85
2022/01/15 01:46:38;;;;;;;;;;;7.30;94.00;;;;;;4974318;28;19920;-86
2022/01/15 01:49:08;;;;;;;;;;;7.30;94.10;;;;;;4994362;28;19913;-86
2022/01/15 01:51:37;;;;;;;;;;;7.30;94.10;;;;;;4964454;28;20429;-85
2022/01/15 01:54:04;;;;;;;;;;;7.30;94.10;;;;;;4992964;28;19909;-85
2022/01/15 01:56:31;;;;;;;;;;;7.30;94.10;;;;;;4993343;28;19913;-86
2022/01/15 01:58:59;;;;;;;;;;;7.20;94.10;;;;;;4990013;28;20315;-86
2022/01/15 02:01:26;;;;;;;;;;;7.20;94.10;;;;;;4995239;28;19914;-88
2022/01/15 02:03:53;;;;;;;;;;;7.20;94.20;;;;;;4991001;28;19913;-87
2022/01/15 02:06:20;;;;;;;;;;;7.20;94.20;;;;;;5003514;28;19914;-88
2022/01/15 02:08:47;;;;;;;;;;;7.20;94.20;;;;;;5001890;28;20173;-88
2022/01/15 02:11:14;;;;;;;;;;;7.20;94.20;;;;;;5012771;28;20005;-87
2022/01/15 02:13:42;;;;;;;;;;;7.20;94.20;;;;;;5012741;28;20008;-87
2022/01/15 02:16:09;;;;;;;;;;;7.20;94.30;;;;;;5012024;28;19928;-87
2022/01/15 02:18:37;;;;;;;;;;;7.20;94.30;;;;;;4990035;28;19920;-88
2022/01/15 02:23:36;;;;;;;;;;;7.20;94.30;;;;;;4990566;28;19918;-88
2022/01/15 02:26:04;;;;;;;;;;;7.20;94.40;;;;;;4998486;28;21082;-87
2022/01/15 02:28:32;;;;;;;;;;;7.20;94.50;;;;;;5023648;28;19913;-88
2022/01/15 02:31:01;;;;;;;;;;;7.20;94.50;;;;;;5001460;28;20016;-88
2022/01/15 02:33:28;;;;;;;;;;;7.20;94.50;;;;;;5006505;28;19917;-87
2022/01/15 02:35:55;;;;;;;;;;;7.10;94.50;;;;;;4992118;28;20100;-87
2022/01/15 02:38:22;;;;;;;;;;;7.10;94.50;;;;;;5005972;28;19914;-87
2022/01/15 02:40:49;;;;;;;;;;;7.20;94.50;;;;;;4993120;28;20020;-88
2022/01/15 02:43:19;;;;;;;;;;;7.10;94.80;;;;;;5013931;28;20013;-87
2022/01/15 02:45:55;;;;;;;;;;;7.20;94.60;;;;;;5003824;28;19918;-87
2022/01/15 02:48:26;;;;;;;;;;;7.10;94.60;;;;;;5005447;28;20390;-87
2022/01/15 02:50:53;;;;;;;;;;;7.20;94.60;;;;;;4997064;28;19913;-88
2022/01/15 02:53:20;;;;;;;;;;;7.20;94.60;;;;;;5005332;28;19920;-87
2022/01/15 02:55:48;;;;;;;;;;;7.10;94.50;;;;;;5004188;28;19917;-87
2022/01/15 02:58:16;;;;;;;;;;;7.10;94.60;;;;;;5011620;28;20012;-87
2022/01/15 03:00:43;;;;;;;;;;;7.20;94.60;;;;;;5009157;28;19989;-88
2022/01/15 03:03:10;;;;;;;;;;;7.10;94.60;;;;;;4995456;28;19914;-88
2022/01/15 03:05:37;;;;;;;;;;;7.20;94.70;;;;;;4991851;28;19913;-88
2022/01/15 03:08:04;;;;;;;;;;;7.10;94.70;;;;;;5021723;28;19917;-88
2022/01/15 03:10:31;;;;;;;;;;;7.10;94.70;;;;;;4998591;28;19920;-87
2022/01/15 03:12:58;;;;;;;;;;;7.10;94.70;;;;;;5008616;28;20106;-87
2022/01/15 03:15:25;;;;;;;;;;;7.10;94.60;;;;;;5001240;28;19917;-88
2022/01/15 03:17:52;;;;;;;;;;;7.00;94.60;;;;;;4992223;28;20141;-88
2022/01/15 03:20:19;;;;;;;;;;;7.00;94.60;;;;;;4997507;28;19913;-87
2022/01/15 03:22:46;;;;;;;;;;;7.00;94.60;;;;;;5004439;28;20141;-87
2022/01/15 03:25:14;;;;;;;;;;;7.00;94.60;;;;;;5005300;28;19922;-88
2022/01/15 03:27:41;;;;;;;;;;;7.00;94.60;;;;;;4992434;28;19913;-88
2022/01/15 03:30:10;;;;;;;;;;;7.00;94.60;;;;;;5007731;28;19914;-88
2022/01/15 03:32:42;;;;;;;;;;;7.00;94.60;;;;;;5006919;28;19914;-87
2022/01/15 03:35:13;;;;;;;;;;;7.00;94.60;;;;;;5002548;28;20267;-87
2022/01/15 03:37:41;;;;;;;;;;;7.00;94.50;;;;;;5007746;28;19921;-87
2022/01/15 03:40:09;;;;;;;;;;;7.00;94.60;;;;;;5010258;28;19936;-87
2022/01/15 03:42:36;;;;;;;;;;;7.00;94.60;;;;;;4995609;28;19922;-88
2022/01/15 03:45:04;;;;;;;;;;;7.00;94.60;;;;;;5014744;28;19976;-87
2022/01/15 03:47:30;;;;;;;;;;;7.00;94.60;;;;;;5011187;28;20000;-87
2022/01/15 03:49:57;;;;;;;;;;;7.00;94.60;;;;;;4993968;28;19922;-88
2022/01/15 03:52:24;;;;;;;;;;;7.00;94.70;;;;;;4963446;28;19931;-88
2022/01/15 03:54:51;;;;;;;;;;;6.90;94.70;;;;;;4987662;28;20479;-88
2022/01/15 03:57:18;;;;;;;;;;;6.90;94.70;;;;;;5005858;28;19925;-88
2022/01/15 03:59:45;;;;;;;;;;;6.90;94.70;;;;;;4992175;28;19920;-87
2022/01/15 04:02:12;;;;;;;;;;;6.90;94.70;;;;;;5002158;28;19921;-88
2022/01/15 04:04:39;;;;;;;;;;;6.80;94.70;;;;;;5009855;28;19920;-87
2022/01/15 04:07:06;;;;;;;;;;;6.80;94.70;;;;;;4993101;28;19914;-87
2022/01/15 04:09:32;;;;;;;;;;;6.80;94.70;;;;;;4994940;28;19913;-89
2022/01/15 04:11:59;;;;;;;;;;;6.80;94.70;;;;;;4984878;28;19914;-87
2022/01/15 04:14:26;;;;;;;;;;;6.80;94.80;;;;;;4998343;28;19914;-88
2022/01/15 04:16:53;;;;;;;;;;;6.70;94.80;;;;;;4998046;28;20403;-88
2022/01/15 04:19:20;;;;;;;;;;;6.70;94.80;;;;;;4993737;28;19913;-88
2022/01/15 04:21:47;;;;;;;;;;;6.70;94.80;;;;;;4989132;28;20406;-87
2022/01/15 04:24:14;;;;;;;;;;;6.70;94.80;;;;;;5014047;28;19910;-88
2022/01/15 04:26:41;;;;;;;;;;;6.60;94.80;;;;;;4980153;28;19920;-88
2022/01/15 04:29:08;;;;;;;;;;;6.60;94.90;;;;;;4999653;28;19910;-88
2022/01/15 04:31:46;;;;;;;;;;;6.60;94.90;;;;;;4998323;28;19913;-88
2022/01/15 04:34:14;;;;;;;;;;;6.60;94.90;;;;;;4998014;28;20282;-87
2022/01/15 04:36:42;;;;;;;;;;;6.60;94.90;;;;;;4990629;28;20271;-87
2022/01/15 04:39:10;;;;;;;;;;;6.60;94.90;;;;;;5003348;28;19914;-87
2022/01/15 04:41:37;;;;;;;;;;;6.60;95.00;;;;;;4997280;28;19913;-88
2022/01/15 04:44:07;;;;;;;;;;;6.60;95.00;;;;;;4994872;28;19918;-87
2022/01/15 04:46:34;;;;;;;;;;;6.50;94.90;;;;;;5005436;28;19934;-87
2022/01/15 04:49:02;;;;;;;;;;;6.50;94.90;;;;;;5006935;28;20108;-88
2022/01/15 04:51:29;;;;;;;;;;;6.60;95.00;;;;;;4993657;28;19920;-87
2022/01/15 04:53:56;;;;;;;;;;;6.60;95.00;;;;;;4988765;28;19914;-87
2022/01/15 04:56:23;;;;;;;;;;;6.50;95.00;;;;;;5009504;28;20303;-88
2022/01/15 04:58:50;;;;;;;;;;;6.50;95.00;;;;;;5000157;28;20019;-88
2022/01/15 05:01:17;;;;;;;;;;;6.50;95.00;;;;;;5000898;28;19913;-88
2022/01/15 05:03:43;;;;;;;;;;;6.50;95.00;;;;;;4989584;28;20085;-87
2022/01/15 05:06:10;;;;;;;;;;;6.40;95.00;;;;;;5008707;28;19924;-88
2022/01/15 05:08:39;;;;;;;;;;;6.40;95.00;;;;;;4970576;28;21432;-88
2022/01/15 05:11:14;;;;;;;;;;;6.40;95.00;;;;;;4996915;28;19913;-88
2022/01/15 05:13:41;;;;;;;;;;;6.40;95.10;;;;;;4992406;28;19999;-87
2022/01/15 05:16:08;;;;;;;;;;;6.40;95.10;;;;;;4999034;28;20095;-87
2022/01/15 05:18:35;;;;;;;;;;;6.40;95.10;;;;;;5001742;28;19914;-88
2022/01/15 05:21:02;;;;;;;;;;;6.40;95.10;;;;;;5008304;28;20262;-88
2022/01/15 05:23:29;;;;;;;;;;;6.40;95.20;;;;;;4987964;28;19913;-88
2022/01/15 05:25:56;;;;;;;;;;;6.30;95.10;;;;;;5001914;28;20250;-88
2022/01/15 05:28:22;;;;;;;;;;;6.30;95.50;;;;;;4997219;28;20286;-88
2022/01/15 05:30:49;;;;;;;;;;;6.30;95.20;;;;;;4997840;28;19941;-87
2022/01/15 05:33:16;;;;;;;;;;;6.30;95.20;;;;;;5012051;28;19976;-87
2022/01/15 05:35:43;;;;;;;;;;;6.30;95.10;;;;;;4999846;28;19960;-87
2022/01/15 05:38:10;;;;;;;;;;;6.30;95.10;;;;;;4999884;28;19924;-88
2022/01/15 05:40:37;;;;;;;;;;;6.30;95.10;;;;;;4989683;28;20095;-87
2022/01/15 05:43:04;;;;;;;;;;;6.30;95.10;;;;;;5004300;28;19914;-88
2022/01/15 05:45:31;;;;;;;;;;;6.30;95.10;;;;;;5022245;28;20338;-87
2022/01/15 05:47:57;;;;;;;;;;;6.30;95.10;;;;;;4998744;28;19919;-87
2022/01/15 05:50:24;;;;;;;;;;;6.30;95.10;;;;;;5010655;28;19914;-87
2022/01/15 05:52:51;;;;;;;;;;;6.30;95.10;;;;;;4999183;28;20041;-88
2022/01/15 05:55:18;;;;;;;;;;;6.20;95.10;;;;;;4991177;28;20113;-87
2022/01/15 05:57:45;;;;;;;;;;;6.20;95.10;;;;;;5012021;28;19917;-88
2022/01/15 06:00:12;;;;;;;;;;;6.20;95.10;;;;;;4989712;28;19921;-88
2022/01/15 06:02:39;;;;;;;;;;;6.20;95.10;;;;;;4986758;28;20341;-88
2022/01/15 06:05:06;;;;;;;;;;;6.20;95.10;;;;;;5008160;28;20278;-88
2022/01/15 06:07:33;;;;;;;;;;;6.10;95.10;;;;;;4990300;28;23070;-88
2022/01/15 06:10:00;;;;;;;;;;;6.20;95.20;;;;;;4994019;28;20386;-88
2022/01/15 06:12:32;;;;;;;;;;;6.20;95.20;;;;;;4998058;28;19918;-88
2022/01/15 06:14:59;;;;;;;;;;;6.20;95.20;;;;;;5001170;28;19913;-88
2022/01/15 06:17:25;;;;;;;;;;;6.20;95.10;;;;;;5019786;28;19917;-88
2022/01/15 06:19:52;;;;;;;;;;;6.20;95.20;;;;;;5009334;28;19931;-88
2022/01/15 06:22:19;;;;;;;;;;;6.20;95.20;;;;;;4996084;28;19920;-88
2022/01/15 06:24:46;;;;;;;;;;;6.20;95.20;;;;;;4975506;28;19924;-88
2022/01/15 06:27:15;;;;;;;;;;;6.10;95.20;;;;;;4991602;28;20444;-88
2022/01/15 06:29:42;;;;;;;;;;;6.20;95.20;;;;;;5001608;28;19921;-88
2022/01/15 06:32:08;;;;;;;;;;;6.20;95.10;;;;;;5011832;28;19921;-87
2022/01/15 06:34:35;;;;;;;;;;;6.10;95.10;;;;;;4999372;28;20406;-87
2022/01/15 06:37:04;;;;;;;;;;;6.10;95.10;;;;;;5007782;28;19925;-88
2022/01/15 06:39:32;;;;;;;;;;;6.00;95.10;;;;;;4991361;28;20014;-88
2022/01/15 06:41:59;;;;;;;;;;;6.10;95.10;;;;;;4990559;28;20381;-88
2022/01/15 06:44:26;;;;;;;;;;;6.10;95.10;;;;;;5001774;28;19914;-88
2022/01/15 06:46:54;;;;;;;;;;;6.10;95.10;;;;;;5003960;28;19914;-88
2022/01/15 06:49:21;;;;;;;;;;;6.00;95.10;;;;;;5024330;28;19914;-88
2022/01/15 06:51:48;;;;;;;;;;;6.00;95.10;;;;;;4995637;28;19928;-88
2022/01/15 06:54:15;;;;;;;;;;;6.00;95.10;;;;;;5006886;28;20278;-87
2022/01/15 06:56:42;;;;;;;;;;;6.00;95.10;;;;;;4993580;28;19913;-87
2022/01/15 06:59:09;;;;;;;;;;;6.00;95.10;;;;;;5022301;28;19921;-88
2022/01/15 07:01:36;;;;;;;;;;;6.00;95.10;;;;;;5015126;28;19914;-87
2022/01/15 07:04:03;;;;;;;;;;;6.00;95.20;;;;;;5025000;28;19918;-88
2022/01/15 07:06:29;;;;;;;;;;;5.90;95.10;;;;;;4998952;28;19913;-88
2022/01/15 07:08:56;;;;;;;;;;;6.00;95.10;;;;;;5005339;28;19914;-87
2022/01/15 07:11:23;;;;;;;;;;;5.90;95.20;;;;;;5000296;28;19914;-88
2022/01/15 07:13:50;;;;;;;;;;;6.00;95.20;;;;;;5006546;28;19917;-88
2022/01/15 07:16:17;;;;;;;;;;;5.90;95.20;;;;;;4993946;28;19920;-88
2022/01/15 07:18:44;;;;;;;;;;;5.90;95.20;;;;;;5001955;28;19921;-88
2022/01/15 07:21:11;;;;;;;;;;;5.90;95.10;;;;;;5005231;28;20262;-88
2022/01/15 07:23:38;;;;;;;;;;;5.90;95.20;;;;;;5001998;28;19914;-87
2022/01/15 07:26:05;;;;;;;;;;;5.90;95.20;;;;;;5002460;28;19919;-88
2022/01/15 07:28:32;;;;;;;;;;;5.90;95.20;;;;;;4985520;28;20318;-88
2022/01/15 07:30:59;;;;;;;;;;;5.90;95.20;;;;;;5003466;28;19913;-88
2022/01/15 07:33:25;;;;;;;;;;;5.90;95.20;;;;;;5004233;28;19921;-88
2022/01/15 07:35:52;;;;;;;;;;;5.90;95.20;;;;;;4993444;28;20278;-87
2022/01/15 07:38:20;;;;;;;;;;;5.90;95.20;;;;;;5002749;28;20078;-86
2022/01/15 07:40:47;;;;;;;;;;;5.80;95.20;;;;;;4996674;28;20107;-87
2022/01/15 07:43:14;;;;;;;;;;;5.80;95.10;;;;;;5003042;28;19917;-88
2022/01/15 07:45:41;;;;;;;;;;;5.80;95.10;;;;;;5014579;28;20109;-87
2022/01/15 07:48:08;;;;;;;;;;;5.80;95.20;;;;;;4992601;28;20382;-88
2022/01/15 07:50:35;;;;;;;;;;;5.80;95.20;;;;;;4999325;28;20337;-88
2022/01/15 07:53:02;;;;;;;;;;;5.70;95.10;;;;;;4998821;28;20365;-87
2022/01/15 07:55:29;;;;;;;;;;;5.70;95.10;;;;;;5004791;28;20296;-87
2022/01/15 07:57:56;;;;;;;;;;;5.70;95.20;;;;;;4999784;28;19921;-87
2022/01/15 08:00:23;;;;;;;;;;;5.70;95.20;;;;;;4996593;28;19927;-88
2022/01/15 08:02:50;;;;;;;;;;;5.70;95.20;;;;;;4994936;28;19921;-88
2022/01/15 08:05:17;;;;;;;;;;;5.70;95.20;;;;;;5002016;28;19917;-88
2022/01/15 08:07:44;;;;;;;;;;;5.70;95.30;;;;;;4998375;28;19924;-88
2022/01/15 08:10:11;;;;;;;;;;;5.80;95.30;;;;;;5001672;28;20397;-88
2022/01/15 08:12:46;;;;;;;;;;;5.80;95.30;;;;;;5008297;28;19932;-88
2022/01/15 08:15:14;;;;;;;;;;;5.80;95.30;;;;;;4999944;28;19917;-87
2022/01/15 08:17:41;;;;;;;;;;;5.90;95.30;;;;;;5006487;28;19917;-88
2022/01/15 08:20:08;;;;;;;;;;;5.80;95.30;;;;;;4996927;28;19918;-88
2022/01/15 08:22:35;;;;;;;;;;;5.90;95.40;;;;;;4995537;28;20010;-88
2022/01/15 08:25:02;;;;;;;;;;;5.90;95.40;;;;;;5002499;28;19917;-88
2022/01/15 08:27:28;;;;;;;;;;;5.90;95.30;;;;;;5003574;28;19917;-88
2022/01/15 08:29:55;;;;;;;;;;;5.90;95.30;;;;;;4985105;28;19915;-88
2022/01/15 08:32:22;;;;;;;;;;;5.90;95.40;;;;;;4996937;28;19918;-88
2022/01/15 08:34:49;;;;;;;;;;;5.90;95.40;;;;;;4996329;28;19918;-87
2022/01/15 08:37:16;;;;;;;;;;;5.90;95.40;;;;;;4999437;28;19926;-87
2022/01/15 08:39:43;;;;;;;;;;;5.90;95.40;;;;;;4992766;28;19921;-87
2022/01/15 08:42:10;;;;;;;;;;;5.90;95.40;;;;;;5003622;28;19914;-87
2022/01/15 08:44:41;;;;;;;;;;;5.90;95.40;;;;;;4991248;28;20601;-87
2022/01/15 08:47:08;;;;;;;;;;;5.90;95.70;;;;;;5024114;28;20290;-87
2022/01/15 08:49:36;;;;;;;;;;;5.90;95.40;;;;;;5000258;28;19922;-87
2022/01/15 08:52:03;;;;;;;;;;;5.90;95.40;;;;;;5000539;28;20294;-88
2022/01/15 08:54:30;;;;;;;;;;;5.90;95.40;;;;;;4993739;28;19921;-87
2022/01/15 08:56:57;;;;;;;;;;;5.90;95.40;;;;;;5021302;28;19940;-87
2022/01/15 08:59:26;;;;;;;;;;;6.00;95.50;;;;;;5005934;28;20261;-86
2022/01/15 09:01:57;;;;;;;;;;;5.90;95.40;;;;;;4995847;28;19913;-87
2022/01/15 09:04:24;;;;;;;;;;;5.90;95.40;;;;;;4987691;28;19917;-88
2022/01/15 09:06:51;;;;;;;;;;;5.90;95.40;;;;;;4995760;28;19914;-88
2022/01/15 09:09:18;;;;;;;;;;;5.90;95.40;;;;;;4992343;28;20493;-88
2022/01/15 09:11:45;;;;;;;;;;;6.00;95.40;;;;;;4999565;28;20245;-88
2022/01/15 09:14:12;;;;;;;;;;;5.90;95.40;;;;;;5000171;28;19921;-87
2022/01/15 09:16:39;;;;;;;;;;;5.90;95.50;;;;;;5003796;28;19922;-87
2022/01/15 09:19:06;;;;;;;;;;;6.00;95.60;;;;;;4999006;28;19932;-88
2022/01/15 09:21:34;;;;;;;;;;;5.90;95.50;;;;;;5002677;28;19928;-87
2022/01/15 09:24:01;;;;;;;;;;;6.00;95.50;;;;;;4988697;28;19917;-87
2022/01/15 09:31:59;;;;;;;;;;;5.90;95.60;;;;;;4978711;28;19927;-88
2022/01/15 09:34:26;;;;;;;;;;;6.00;95.60;;;;;;4994851;28;20282;-88
2022/01/15 09:36:53;;;;;;;;;;;6.00;95.60;;;;;;4983510;28;19963;-90
2022/01/15 09:39:20;;;;;;;;;;;6.00;95.70;;;;;;5004217;28;19921;-89
2022/01/15 09:41:48;;;;;;;;;;;6.00;95.70;;;;;;4991571;28;20001;-89
2022/01/15 09:44:16;;;;;;;;;;;6.00;95.80;;;;;;4973653;28;20387;-89
2022/01/15 09:46:44;;;;;;;;;;;6.10;95.80;;;;;;4984637;28;20381;-89
2022/01/15 09:49:13;;;;;;;;;;;6.10;95.80;;;;;;4976850;28;19913;-89
2022/01/15 09:51:40;;;;;;;;;;;6.10;95.90;;;;;;4982564;28;20409;-88
2022/01/15 09:54:07;;;;;;;;;;;6.10;95.80;;;;;;4958721;28;19926;-88
2022/01/15 09:56:33;;;;;;;;;;;6.10;95.80;;;;;;4987884;28;20007;-88
2022/01/15 09:59:02;;;;;;;;;;;6.20;95.90;;;;;;4990504;28;19928;-89
2022/01/15 10:01:30;;;;;;;;;;;6.20;96.00;;;;;;4987055;28;19914;-88
2022/01/15 10:03:58;;;;;;;;;;;6.20;96.20;;;;;;4962967;28;19918;-88
2022/01/15 10:06:25;;;;;;;;;;;6.40;96.30;;;;;;4996343;28;19924;-89
2022/01/15 10:08:59;;;;;;;;;;;6.40;96.20;;;;;;4979618;28;19932;-88
2022/01/15 10:11:40;;;;;;;;;;;6.40;96.20;;;;;;4980265;28;20019;-88
2022/01/15 10:14:27;;;;;;;;;;;6.40;96.10;;;;;;5012380;28;19914;-88
2022/01/15 10:16:55;;;;;;;;;;;6.40;96.00;;;;;;4988886;28;20221;-88
2022/01/15 10:19:25;;;;;;;;;;;6.40;96.00;;;;;;4996297;28;20103;-89
2022/01/15 10:22:24;;;;;;;;;;;6.40;96.00;;;;;;4998442;28;20374;-89
2022/01/15 10:24:53;;;;;;;;;;;6.40;96.10;;;;;;4949556;28;19920;-88
2022/01/15 10:27:21;;;;;;;;;;;6.50;96.10;;;;;;4994822;28;20260;-89
2022/01/15 10:29:52;;;;;;;;;;;6.50;96.10;;;;;;4997554;28;20274;-88
2022/01/15 10:32:19;;;;;;;;;;;6.50;96.30;;;;;;5010342;28;19913;-88
2022/01/15 10:34:46;;;;;;;;;;;6.60;96.20;;;;;;4982401;28;19919;-89
2022/01/15 10:37:14;;;;;;;;;;;6.70;96.30;;;;;;5011091;28;19925;-88
2022/01/15 10:39:53;;;;;;;;;;;6.70;96.30;;;;;;4993818;28;20037;-89
2022/01/15 10:42:23;;;;;;;;;;;6.70;96.40;;;;;;4998860;28;19927;-89
2022/01/15 10:44:54;;;;;;;;;;;6.80;96.40;;;;;;5003685;28;20248;-88
2022/01/15 10:47:22;;;;;;;;;;;6.80;96.40;;;;;;4986361;28;20000;-89
2022/01/15 10:49:50;;;;;;;;;;;6.90;96.50;;;;;;4979009;28;19917;-89
2022/01/15 10:52:18;;;;;;;;;;;6.90;96.50;;;;;;4987198;28;19920;-89
2022/01/15 10:55:04;;;;;;;;;;;7.00;96.60;;;;;;4993544;28;19913;-89
2022/01/15 10:57:32;;;;;;;;;;;7.10;96.60;;;;;;5001687;28;20584;-89
2022/01/15 11:00:08;;;;;;;;;;;7.10;96.60;;;;;;4991504;28;20385;-89
2022/01/15 11:02:36;;;;;;;;;;;7.20;96.60;;;;;;4999938;28;20544;-89
2022/01/15 11:05:03;;;;;;;;;;;7.20;96.60;;;;;;4983796;28;20374;-89
2022/01/15 11:07:34;;;;;;;;;;;7.30;96.70;;;;;;4987105;28;20023;-88
2022/01/15 11:10:04;;;;;;;;;;;7.30;96.70;;;;;;5013500;28;19918;-89
2022/01/15 11:12:31;;;;;;;;;;;7.40;96.80;;;;;;4985320;28;20007;-89
2022/01/15 11:14:58;;;;;;;;;;;7.50;96.80;;;;;;5000263;28;20283;-89
2022/01/15 11:17:25;;;;;;;;;;;7.60;96.90;;;;;;4999145;28;20326;-88
2022/01/15 11:19:52;;;;;;;;;;;7.80;97.10;;;;;;4978823;28;19918;-90
2022/01/15 11:22:23;;;;;;;;;;;8.00;97.50;;;;;;4982770;28;20397;-89
2022/01/15 11:24:50;;;;;;;;;;;8.40;97.80;;;;;;4996064;28;19921;-89
2022/01/15 11:27:17;;;;;;;;;;;8.90;98.20;;;;;;4980476;28;19920;-89
2022/01/15 11:29:45;;;;;;;;;;;9.40;98.70;;;;;;5010211;28;19917;-89
2022/01/15 11:32:13;;;;;;;;;;;9.90;98.90;;;;;;4991812;28;20306;-89
2022/01/15 11:34:41;;;;;;;;;;;10.20;98.60;;;;;;5004283;28;19936;-89
2022/01/15 11:37:17;;;;;;;;;;;10.50;98.40;;;;;;4974043;28;19928;-89
2022/01/15 11:39:45;;;;;;;;;;;10.70;98.20;;;;;;4986291;28;19924;-89
2022/01/15 11:42:26;;;;;;;;;;;11.00;98.10;;;;;;4985178;28;20157;-89
2022/01/15 11:44:53;;;;;;;;;;;11.30;98.00;;;;;;5005262;28;19922;-89
2022/01/15 11:47:25;;;;;;;;;;;11.70;98.10;;;;;;4988028;28;19921;-88
2022/01/15 11:49:53;;;;;;;;;;;12.10;98.10;;;;;;5002378;28;19935;-89
2022/01/15 11:52:22;;;;;;;;;;;12.50;97.70;;;;;;4967928;28;19928;-88
2022/01/15 11:54:49;;;;;;;;;;;12.90;97.70;;;;;;4994879;28;19914;-89
2022/01/15 11:57:20;;;;;;;;;;;13.20;97.30;;;;;;4981496;28;20379;-89
2022/01/15 11:59:48;;;;;;;;;;;13.60;97.00;;;;;;4985761;28;20386;-89
2022/01/15 12:02:32;;;;;;;;;;;14.00;96.90;;;;;;4978349;28;20113;-89
2022/01/15 12:05:19;;;;;;;;;;;14.30;97.20;;;;;;4964998;28;19913;-89
2022/01/15 12:07:47;;;;;;;;;;;14.70;96.50;;;;;;4957183;28;19914;-88
2022/01/15 12:10:15;;;;;;;;;;;15.00;96.40;;;;;;4981508;28;20202;-89
2022/01/15 12:12:49;;;;;;;;;;;15.20;96.70;;;;;;5001661;28;19928;-89
2022/01/15 12:15:19;;;;;;;;;;;15.40;96.40;;;;;;4989726;28;20194;-89
2022/01/15 12:17:47;;;;;;;;;;;15.60;96.20;;;;;;4978211;28;19913;-89
2022/01/15 12:20:17;;;;;;;;;;;15.70;96.00;;;;;;4981804;28;20113;-88
2022/01/15 12:22:43;;;;;;;;;;;15.80;95.60;;;;;;4976029;28;20378;-88
2022/01/15 12:25:13;;;;;;;;;;;15.80;95.20;;;;;;4983797;28;20198;-88
2022/01/15 12:27:40;;;;;;;;;;;15.90;95.30;;;;;;4992964;28;20275;-88
2022/01/15 12:30:11;;;;;;;;;;;15.90;95.20;;;;;;4984513;28;19932;-89
2022/01/15 12:32:40;;;;;;;;;;;15.80;94.80;;;;;;4992065;28;19920;-89
2022/01/15 12:35:28;;;;;;;;;;;15.80;95.00;;;;;;4983793;28;20317;-88
2022/01/15 12:38:00;;;;;;;;;;;15.70;95.00;;;;;;4958280;28;19921;-88
2022/01/15 12:40:31;;;;;;;;;;;15.70;95.00;;;;;;4984535;28;19928;-89
2022/01/15 12:42:59;;;;;;;;;;;15.70;94.90;;;;;;4982848;28;19920;-88
2022/01/15 12:45:27;;;;;;;;;;;15.70;94.80;;;;;;4987254;28;19926;-88
2022/01/15 12:47:55;;;;;;;;;;;15.80;95.00;;;;;;4985611;28;19932;-88
2022/01/15 12:50:22;;;;;;;;;;;15.90;94.80;;;;;;4978919;28;19917;-88
2022/01/15 12:53:02;;;;;;;;;;;15.90;94.80;;;;;;4970084;28;20148;-88
2022/01/15 12:55:30;;;;;;;;;;;16.00;94.60;;;;;;5003450;28;19924;-89
2022/01/15 12:57:57;;;;;;;;;;;16.10;94.60;;;;;;4990005;28;20483;-89
2022/01/15 13:00:25;;;;;;;;;;;16.30;94.50;;;;;;4967133;28;19925;-88
2022/01/15 13:02:54;;;;;;;;;;;16.40;94.80;;;;;;5005329;28;19924;-88
2022/01/15 13:05:23;;;;;;;;;;;16.50;94.70;;;;;;4977371;28;20004;-88
2022/01/15 13:07:53;;;;;;;;;;;16.50;94.50;;;;;;4977674;28;19918;-88
2022/01/15 13:10:24;;;;;;;;;;;16.60;93.80;;;;;;4970148;28;20221;-89
2022/01/15 13:12:51;;;;;;;;;;;16.60;93.30;;;;;;4986308;28;20440;-88
2022/01/15 13:15:21;;;;;;;;;;;16.60;92.70;;;;;;4973248;28;20403;-88
2022/01/15 13:17:48;;;;;;;;;;;16.70;92.50;;;;;;4987935;28;19920;-89
2022/01/15 13:20:29;;;;;;;;;;;16.70;92.80;;;;;;4986131;28;20117;-88
2022/01/15 13:22:56;;;;;;;;;;;16.70;92.30;;;;;;4982027;28;19924;-89
2022/01/15 13:25:24;;;;;;;;;;;16.70;92.30;;;;;;4963433;28;20575;-88
2022/01/15 13:27:52;;;;;;;;;;;16.70;92.50;;;;;;4988128;28;19921;-89
2022/01/15 13:30:20;;;;;;;;;;;16.70;92.60;;;;;;4979566;28;20461;-88
2022/01/15 13:33:03;;;;;;;;;;;16.80;92.30;;;;;;4981959;28;20397;-89
2022/01/15 13:35:32;;;;;;;;;;;16.90;93.00;;;;;;4987680;28;19914;-88
2022/01/15 13:38:09;;;;;;;;;;;16.90;92.70;;;;;;4948854;28;19914;-89
2022/01/15 13:40:48;;;;;;;;;;;16.80;92.10;;;;;;4940126;28;19918;-88
2022/01/15 13:43:24;;;;;;;;;;;16.80;91.80;;;;;;4950610;28;20008;-88
2022/01/15 13:45:51;;;;;;;;;;;16.70;91.80;;;;;;4960383;28;19914;-88
2022/01/15 13:48:23;;;;;;;;;;;16.60;92.20;;;;;;4933637;28;20318;-88
2022/01/15 13:53:37;;;;;;;;;;;16.30;91.40;;;;;;4969040;28;19936;-88
2022/01/15 13:56:11;;;;;;;;;;;16.10;91.30;;;;;;4946970;28;19920;-88
2022/01/15 13:58:38;;;;;;;;;;;16.00;91.20;;;;;;4951715;28;19914;-88
2022/01/15 14:01:18;;;;;;;;;;;15.80;91.30;;;;;;4962946;28;19918;-88
2022/01/15 14:03:45;;;;;;;;;;;15.80;91.50;;;;;;4947516;28;19914;-88
2022/01/15 14:06:12;;;;;;;;;;;15.70;91.60;;;;;;4960081;28;20544;-88
2022/01/15 14:08:39;;;;;;;;;;;15.80;91.90;;;;;;4951386;28;20302;-88
2022/01/15 14:11:10;;;;;;;;;;;15.80;91.70;;;;;;4949387;28;19920;-88
2022/01/15 14:13:37;;;;;;;;;;;15.90;92.00;;;;;;4955536;28;19918;-88
2022/01/15 14:16:23;;;;;;;;;;;15.90;91.40;;;;;;4939880;28;19914;-88
2022/01/15 14:19:00;;;;;;;;;;;16.00;91.20;;;;;;4955063;28;19940;-88
2022/01/15 14:24:13;;;;;;;;;;;16.00;91.50;;;;;;4981824;28;19914;-88
2022/01/15 14:26:45;;;;;;;;;;;15.80;91.10;;;;;;4969592;28;19914;-88
2022/01/15 14:29:12;;;;;;;;;;;15.60;90.50;;;;;;4951616;28;19914;-88
2022/01/15 14:31:39;;;;;;;;;;;15.40;90.10;;;;;;4968498;28;20017;-88
2022/01/15 14:34:06;;;;;;;;;;;15.10;90.30;;;;;;4946174;28;19924;-88
2022/01/15 14:36:33;;;;;;;;;;;14.90;89.80;;;;;;4980480;28;19921;-88
2022/01/15 14:39:04;;;;;;;;;;;14.60;89.30;;;;;;5003836;28;20348;-88
2022/01/15 14:41:32;;;;;;;;;;;14.40;88.90;;;;;;4974136;28;20223;-88
2022/01/15 14:43:59;;;;;;;;;;;14.10;89.20;;;;;;5004414;28;19924;-88
2022/01/15 14:46:26;;;;;;;;;;;13.80;89.70;;;;;;4989782;28;19913;-88
2022/01/15 14:48:53;;;;;;;;;;;13.60;88.50;;;;;;5000148;28;19953;-89
2022/01/15 14:51:20;;;;;;;;;;;13.30;88.10;;;;;;4985938;28;19918;-88
2022/01/15 14:53:46;;;;;;;;;;;13.10;88.90;;;;;;4999866;28;19921;-88
2022/01/15 14:56:13;;;;;;;;;;;12.80;89.70;;;;;;4998502;28;19924;-88
2022/01/15 14:58:41;;;;;;;;;;;12.60;89.10;;;;;;4988654;28;20349;-88